sensor_id;sensor_type;location;lat;lon;timestamp;P1;durP1;ratioP1;P2;durP2;ratioP2
3407;SDS011;1717;50.240;8.406;2022-12-11T00:00:36;25.20;;;14.52;;
3407;SDS011;1717;50.240;8.406;2022-12-11T00:03:04;28.02;;;17.75;;
3407;SDS011;1717;50.240;8.406;2022-12-11T00:05:32;29.27;;;15.93;;
3407;SDS011;1717;50.240;8.406;2022-12-11T00:07:59;23.60;;;14.35;;
3407;SDS011;1717;50.240;8.406;2022-12-11T00:10:26;28.13;;;17.50;;
3407;SDS011;1717;50.240;8.406;2022-12-11T00:12:53;25.67;;;14.70;;
3407;SDS011;1717;50.240;8.406;2022-12-11T00:15:20;22.50;;;14.48;;
3407;SDS011;1717;50.240;8.406;2022-12-11T00:17:47;26.70;;;15.40;;
3407;SDS011;1717;50.240;8.406;2022-12-11T00:20:14;27.50;;;15.65;;
3407;SDS011;1717;50.240;8.406;2022-12-11T00:22:42;23.33;;;14.20;;
3407;SDS011;1717;50.240;8.406;2022-12-11T00:25:09;29.58;;;16.23;;
3407;SDS011;1717;50.240;8.406;2022-12-11T00:27:36;28.97;;;16.37;;
3407;SDS011;1717;50.240;8.406;2022-12-11T00:30:03;32.55;;;16.70;;
3407;SDS011;1717;50.240;8.406;2022-12-11T00:32:31;28.02;;;16.73;;
3407;SDS011;1717;50.240;8.406;2022-12-11T00:34:58;32.47;;;18.30;;
3407;SDS011;1717;50.240;8.406;2022-12-11T00:37:25;27.50;;;16.13;;
3407;SDS011;1717;50.240;8.406;2022-12-11T00:39:53;33.93;;;17.70;;
3407;SDS011;1717;50.240;8.406;2022-12-11T00:42:20;30.60;;;17.20;;
3407;SDS011;1717;50.240;8.406;2022-12-11T00:44:46;34.50;;;18.70;;
3407;SDS011;1717;50.240;8.406;2022-12-11T00:47:14;35.75;;;18.67;;
3407;SDS011;1717;50.240;8.406;2022-12-11T00:49:42;35.67;;;18.45;;
3407;SDS011;1717;50.240;8.406;2022-12-11T00:52:09;33.40;;;18.52;;
3407;SDS011;1717;50.240;8.406;2022-12-11T00:54:36;36.00;;;20.00;;
3407;SDS011;1717;50.240;8.406;2022-12-11T00:57:04;34.58;;;19.30;;
3407;SDS011;1717;50.240;8.406;2022-12-11T00:59:31;37.87;;;18.30;;
3407;SDS011;1717;50.240;8.406;2022-12-11T01:01:57;38.20;;;19.65;;
3407;SDS011;1717;50.240;8.406;2022-12-11T01:04:24;39.75;;;19.75;;
3407;SDS011;1717;50.240;8.406;2022-12-11T01:06:51;42.75;;;23.38;;
3407;SDS011;1717;50.240;8.406;2022-12-11T01:09:18;42.00;;;22.27;;
3407;SDS011;1717;50.240;8.406;2022-12-11T01:12:02;44.10;;;22.10;;
3407;SDS011;1717;50.240;8.406;2022-12-11T01:14:31;42.42;;;23.02;;
3407;SDS011;1717;50.240;8.406;2022-12-11T01:16:57;44.92;;;24.05;;
3407;SDS011;1717;50.240;8.406;2022-12-11T01:19:24;41.55;;;20.35;;
3407;SDS011;1717;50.240;8.406;2022-12-11T01:21:51;40.03;;;21.02;;
3407;SDS011;1717;50.240;8.406;2022-12-11T01:24:18;43.40;;;21.77;;
3407;SDS011;1717;50.240;8.406;2022-12-11T01:26:44;44.88;;;23.80;;
3407;SDS011;1717;50.240;8.406;2022-12-11T01:29:13;43.83;;;21.92;;
3407;SDS011;1717;50.240;8.406;2022-12-11T01:31:40;43.05;;;22.27;;
3407;SDS011;1717;50.240;8.406;2022-12-11T01:34:07;49.17;;;24.48;;
3407;SDS011;1717;50.240;8.406;2022-12-11T01:36:34;40.17;;;21.15;;
3407;SDS011;1717;50.240;8.406;2022-12-11T01:39:00;43.45;;;21.77;;
3407;SDS011;1717;50.240;8.406;2022-12-11T01:41:27;50.03;;;23.73;;
3407;SDS011;1717;50.240;8.406;2022-12-11T01:43:55;46.22;;;24.00;;
3407;SDS011;1717;50.240;8.406;2022-12-11T01:46:24;48.17;;;24.17;;
3407;SDS011;1717;50.240;8.406;2022-12-11T01:48:52;43.47;;;21.52;;
3407;SDS011;1717;50.240;8.406;2022-12-11T01:51:20;47.67;;;21.80;;
3407;SDS011;1717;50.240;8.406;2022-12-11T01:53:49;43.35;;;23.10;;
3407;SDS011;1717;50.240;8.406;2022-12-11T01:56:20;46.00;;;23.13;;
3407;SDS011;1717;50.240;8.406;2022-12-11T01:58:48;49.65;;;24.63;;
3407;SDS011;1717;50.240;8.406;2022-12-11T02:01:17;51.72;;;26.58;;
3407;SDS011;1717;50.240;8.406;2022-12-11T02:03:51;46.20;;;23.45;;
3407;SDS011;1717;50.240;8.406;2022-12-11T02:06:33;45.03;;;22.48;;
3407;SDS011;1717;50.240;8.406;2022-12-11T02:09:02;46.28;;;23.77;;
3407;SDS011;1717;50.240;8.406;2022-12-11T02:11:34;45.22;;;22.80;;
3407;SDS011;1717;50.240;8.406;2022-12-11T02:14:12;43.80;;;22.10;;
3407;SDS011;1717;50.240;8.406;2022-12-11T02:16:45;45.10;;;23.02;;
3407;SDS011;1717;50.240;8.406;2022-12-11T02:19:25;53.53;;;23.73;;
3407;SDS011;1717;50.240;8.406;2022-12-11T02:22:01;51.47;;;26.52;;
3407;SDS011;1717;50.240;8.406;2022-12-11T02:24:47;46.97;;;24.95;;
3407;SDS011;1717;50.240;8.406;2022-12-11T02:27:26;49.15;;;24.52;;
3407;SDS011;1717;50.240;8.406;2022-12-11T02:30:00;51.40;;;23.50;;
3407;SDS011;1717;50.240;8.406;2022-12-11T02:32:31;50.05;;;25.48;;
3407;SDS011;1717;50.240;8.406;2022-12-11T02:35:04;45.40;;;23.40;;
3407;SDS011;1717;50.240;8.406;2022-12-11T02:37:34;45.72;;;24.05;;
3407;SDS011;1717;50.240;8.406;2022-12-11T02:40:04;45.75;;;24.30;;
3407;SDS011;1717;50.240;8.406;2022-12-11T02:42:35;55.22;;;23.52;;
3407;SDS011;1717;50.240;8.406;2022-12-11T02:45:07;43.38;;;22.05;;
3407;SDS011;1717;50.240;8.406;2022-12-11T02:47:35;45.92;;;24.70;;
3407;SDS011;1717;50.240;8.406;2022-12-11T02:50:06;42.33;;;23.83;;
3407;SDS011;1717;50.240;8.406;2022-12-11T02:52:35;47.63;;;23.48;;
3407;SDS011;1717;50.240;8.406;2022-12-11T02:55:04;46.47;;;23.08;;
3407;SDS011;1717;50.240;8.406;2022-12-11T02:57:34;42.15;;;22.98;;
3407;SDS011;1717;50.240;8.406;2022-12-11T03:00:07;43.67;;;22.90;;
3407;SDS011;1717;50.240;8.406;2022-12-11T03:02:35;40.38;;;22.77;;
3407;SDS011;1717;50.240;8.406;2022-12-11T03:05:03;41.95;;;22.58;;
3407;SDS011;1717;50.240;8.406;2022-12-11T03:07:31;44.60;;;23.60;;
3407;SDS011;1717;50.240;8.406;2022-12-11T03:10:01;53.00;;;24.27;;
3407;SDS011;1717;50.240;8.406;2022-12-11T03:12:30;41.22;;;23.45;;
3407;SDS011;1717;50.240;8.406;2022-12-11T03:15:03;48.35;;;24.90;;
3407;SDS011;1717;50.240;8.406;2022-12-11T03:17:37;45.15;;;25.10;;
3407;SDS011;1717;50.240;8.406;2022-12-11T03:20:11;49.97;;;25.73;;
3407;SDS011;1717;50.240;8.406;2022-12-11T03:22:49;48.83;;;25.83;;
3407;SDS011;1717;50.240;8.406;2022-12-11T03:25:22;47.55;;;24.42;;
3407;SDS011;1717;50.240;8.406;2022-12-11T03:27:57;51.13;;;25.58;;
3407;SDS011;1717;50.240;8.406;2022-12-11T03:30:32;47.72;;;23.73;;
3407;SDS011;1717;50.240;8.406;2022-12-11T03:33:03;46.20;;;24.63;;
3407;SDS011;1717;50.240;8.406;2022-12-11T03:35:34;50.88;;;26.23;;
3407;SDS011;1717;50.240;8.406;2022-12-11T03:38:05;50.05;;;24.50;;
3407;SDS011;1717;50.240;8.406;2022-12-11T03:40:36;38.70;;;21.10;;
3407;SDS011;1717;50.240;8.406;2022-12-11T03:43:07;44.90;;;23.73;;
3407;SDS011;1717;50.240;8.406;2022-12-11T03:45:36;54.08;;;24.88;;
3407;SDS011;1717;50.240;8.406;2022-12-11T03:48:05;54.83;;;26.00;;
3407;SDS011;1717;50.240;8.406;2022-12-11T03:50:34;46.95;;;23.58;;
3407;SDS011;1717;50.240;8.406;2022-12-11T03:53:02;46.13;;;24.52;;
3407;SDS011;1717;50.240;8.406;2022-12-11T03:55:29;56.40;;;27.35;;
3407;SDS011;1717;50.240;8.406;2022-12-11T03:57:59;57.38;;;26.23;;
3407;SDS011;1717;50.240;8.406;2022-12-11T04:00:26;46.42;;;23.35;;
3407;SDS011;1717;50.240;8.406;2022-12-11T04:02:53;51.53;;;23.77;;
3407;SDS011;1717;50.240;8.406;2022-12-11T04:05:40;43.45;;;22.85;;
3407;SDS011;1717;50.240;8.406;2022-12-11T04:08:08;49.20;;;22.33;;
3407;SDS011;1717;50.240;8.406;2022-12-11T04:10:35;49.67;;;24.52;;
3407;SDS011;1717;50.240;8.406;2022-12-11T04:13:02;41.15;;;21.75;;
3407;SDS011;1717;50.240;8.406;2022-12-11T04:15:31;47.10;;;24.02;;
3407;SDS011;1717;50.240;8.406;2022-12-11T04:17:57;43.53;;;21.10;;
3407;SDS011;1717;50.240;8.406;2022-12-11T04:20:42;43.45;;;23.13;;
3407;SDS011;1717;50.240;8.406;2022-12-11T04:23:26;38.90;;;19.30;;
3407;SDS011;1717;50.240;8.406;2022-12-11T04:26:12;45.33;;;20.65;;
3407;SDS011;1717;50.240;8.406;2022-12-11T04:28:41;38.87;;;21.27;;
3407;SDS011;1717;50.240;8.406;2022-12-11T04:31:09;41.75;;;21.42;;
3407;SDS011;1717;50.240;8.406;2022-12-11T04:33:37;34.53;;;19.08;;
3407;SDS011;1717;50.240;8.406;2022-12-11T04:36:07;35.22;;;19.65;;
3407;SDS011;1717;50.240;8.406;2022-12-11T04:38:34;41.60;;;20.40;;
3407;SDS011;1717;50.240;8.406;2022-12-11T04:41:03;40.67;;;20.23;;
3407;SDS011;1717;50.240;8.406;2022-12-11T04:43:31;40.53;;;22.55;;
3407;SDS011;1717;50.240;8.406;2022-12-11T04:46:02;43.40;;;21.35;;
3407;SDS011;1717;50.240;8.406;2022-12-11T04:48:30;44.10;;;19.88;;
3407;SDS011;1717;50.240;8.406;2022-12-11T04:50:57;35.42;;;20.65;;
3407;SDS011;1717;50.240;8.406;2022-12-11T04:53:25;39.00;;;20.27;;
3407;SDS011;1717;50.240;8.406;2022-12-11T04:55:53;40.65;;;21.05;;
3407;SDS011;1717;50.240;8.406;2022-12-11T04:58:20;39.63;;;20.45;;
3407;SDS011;1717;50.240;8.406;2022-12-11T05:00:47;40.33;;;19.65;;
3407;SDS011;1717;50.240;8.406;2022-12-11T05:03:14;41.33;;;19.17;;
3407;SDS011;1717;50.240;8.406;2022-12-11T05:05:45;42.22;;;21.25;;
3407;SDS011;1717;50.240;8.406;2022-12-11T05:08:14;32.90;;;20.98;;
3407;SDS011;1717;50.240;8.406;2022-12-11T05:10:42;38.88;;;19.25;;
3407;SDS011;1717;50.240;8.406;2022-12-11T05:13:09;31.98;;;18.98;;
3407;SDS011;1717;50.240;8.406;2022-12-11T05:15:37;33.42;;;18.58;;
3407;SDS011;1717;50.240;8.406;2022-12-11T05:18:05;35.58;;;20.60;;
3407;SDS011;1717;50.240;8.406;2022-12-11T05:20:32;31.02;;;17.20;;
3407;SDS011;1717;50.240;8.406;2022-12-11T05:22:58;32.42;;;19.10;;
3407;SDS011;1717;50.240;8.406;2022-12-11T05:25:25;30.80;;;18.80;;
3407;SDS011;1717;50.240;8.406;2022-12-11T05:27:53;38.58;;;18.38;;
3407;SDS011;1717;50.240;8.406;2022-12-11T05:30:20;34.45;;;18.60;;
3407;SDS011;1717;50.240;8.406;2022-12-11T05:32:47;35.35;;;18.50;;
3407;SDS011;1717;50.240;8.406;2022-12-11T05:35:14;28.92;;;17.77;;
3407;SDS011;1717;50.240;8.406;2022-12-11T05:37:41;31.33;;;17.55;;
3407;SDS011;1717;50.240;8.406;2022-12-11T05:40:08;37.47;;;18.50;;
3407;SDS011;1717;50.240;8.406;2022-12-11T05:42:36;32.28;;;17.70;;
3407;SDS011;1717;50.240;8.406;2022-12-11T05:45:05;31.55;;;17.80;;
3407;SDS011;1717;50.240;8.406;2022-12-11T05:47:32;29.58;;;16.20;;
3407;SDS011;1717;50.240;8.406;2022-12-11T05:49:59;33.78;;;16.50;;
3407;SDS011;1717;50.240;8.406;2022-12-11T05:52:26;29.77;;;16.83;;
3407;SDS011;1717;50.240;8.406;2022-12-11T05:54:53;37.42;;;18.58;;
3407;SDS011;1717;50.240;8.406;2022-12-11T05:57:19;32.47;;;17.35;;
3407;SDS011;1717;50.240;8.406;2022-12-11T05:59:46;35.53;;;18.23;;
3407;SDS011;1717;50.240;8.406;2022-12-11T06:02:14;28.20;;;16.43;;
3407;SDS011;1717;50.240;8.406;2022-12-11T06:04:41;29.30;;;16.23;;
3407;SDS011;1717;50.240;8.406;2022-12-11T06:07:08;33.25;;;17.20;;
3407;SDS011;1717;50.240;8.406;2022-12-11T06:09:35;34.67;;;16.30;;
3407;SDS011;1717;50.240;8.406;2022-12-11T06:12:01;30.55;;;16.00;;
3407;SDS011;1717;50.240;8.406;2022-12-11T06:14:28;32.42;;;18.85;;
3407;SDS011;1717;50.240;8.406;2022-12-11T06:16:55;35.55;;;16.15;;
3407;SDS011;1717;50.240;8.406;2022-12-11T06:19:23;41.42;;;17.90;;
3407;SDS011;1717;50.240;8.406;2022-12-11T06:21:50;32.47;;;16.33;;
3407;SDS011;1717;50.240;8.406;2022-12-11T06:24:17;25.90;;;15.10;;
3407;SDS011;1717;50.240;8.406;2022-12-11T06:26:44;30.95;;;15.77;;
3407;SDS011;1717;50.240;8.406;2022-12-11T06:29:11;30.02;;;17.67;;
3407;SDS011;1717;50.240;8.406;2022-12-11T06:31:38;30.88;;;16.20;;
3407;SDS011;1717;50.240;8.406;2022-12-11T06:34:05;29.00;;;16.77;;
3407;SDS011;1717;50.240;8.406;2022-12-11T06:36:33;29.70;;;15.60;;
3407;SDS011;1717;50.240;8.406;2022-12-11T06:39:00;27.42;;;14.85;;
3407;SDS011;1717;50.240;8.406;2022-12-11T06:41:27;35.40;;;15.75;;
3407;SDS011;1717;50.240;8.406;2022-12-11T06:43:53;25.98;;;16.20;;
3407;SDS011;1717;50.240;8.406;2022-12-11T06:46:20;37.08;;;17.77;;
3407;SDS011;1717;50.240;8.406;2022-12-11T06:48:47;31.85;;;17.42;;
3407;SDS011;1717;50.240;8.406;2022-12-11T06:51:15;32.30;;;19.63;;
3407;SDS011;1717;50.240;8.406;2022-12-11T06:53:48;33.45;;;18.60;;
3407;SDS011;1717;50.240;8.406;2022-12-11T06:56:17;35.70;;;18.92;;
3407;SDS011;1717;50.240;8.406;2022-12-11T06:58:44;38.58;;;19.17;;
3407;SDS011;1717;50.240;8.406;2022-12-11T07:01:12;35.60;;;19.48;;
3407;SDS011;1717;50.240;8.406;2022-12-11T07:03:41;37.03;;;18.30;;
3407;SDS011;1717;50.240;8.406;2022-12-11T07:06:08;33.10;;;18.13;;
3407;SDS011;1717;50.240;8.406;2022-12-11T07:08:35;33.53;;;17.95;;
3407;SDS011;1717;50.240;8.406;2022-12-11T07:11:04;34.38;;;19.02;;
3407;SDS011;1717;50.240;8.406;2022-12-11T07:13:32;37.33;;;18.92;;
3407;SDS011;1717;50.240;8.406;2022-12-11T07:15:59;30.23;;;16.55;;
3407;SDS011;1717;50.240;8.406;2022-12-11T07:18:28;42.95;;;18.73;;
3407;SDS011;1717;50.240;8.406;2022-12-11T07:20:56;33.03;;;16.85;;
3407;SDS011;1717;50.240;8.406;2022-12-11T07:23:25;33.05;;;18.50;;
3407;SDS011;1717;50.240;8.406;2022-12-11T07:25:52;32.53;;;18.98;;
3407;SDS011;1717;50.240;8.406;2022-12-11T07:28:20;35.30;;;18.90;;
3407;SDS011;1717;50.240;8.406;2022-12-11T07:30:48;35.70;;;18.63;;
3407;SDS011;1717;50.240;8.406;2022-12-11T07:33:14;32.15;;;15.82;;
3407;SDS011;1717;50.240;8.406;2022-12-11T07:35:41;36.28;;;18.77;;
3407;SDS011;1717;50.240;8.406;2022-12-11T07:38:08;36.08;;;17.48;;
3407;SDS011;1717;50.240;8.406;2022-12-11T07:40:35;33.03;;;17.58;;
3407;SDS011;1717;50.240;8.406;2022-12-11T07:43:02;32.97;;;20.58;;
3407;SDS011;1717;50.240;8.406;2022-12-11T07:45:30;37.25;;;20.05;;
3407;SDS011;1717;50.240;8.406;2022-12-11T07:47:57;34.70;;;18.90;;
3407;SDS011;1717;50.240;8.406;2022-12-11T07:50:24;28.13;;;15.40;;
3407;SDS011;1717;50.240;8.406;2022-12-11T07:52:51;32.50;;;17.25;;
3407;SDS011;1717;50.240;8.406;2022-12-11T07:55:18;32.17;;;17.55;;
3407;SDS011;1717;50.240;8.406;2022-12-11T07:57:44;34.88;;;19.40;;
3407;SDS011;1717;50.240;8.406;2022-12-11T08:00:11;27.48;;;16.02;;
3407;SDS011;1717;50.240;8.406;2022-12-11T08:02:40;30.75;;;16.38;;
3407;SDS011;1717;50.240;8.406;2022-12-11T08:05:07;25.88;;;15.80;;
3407;SDS011;1717;50.240;8.406;2022-12-11T08:07:34;31.20;;;17.27;;
3407;SDS011;1717;50.240;8.406;2022-12-11T08:10:01;30.17;;;16.05;;
3407;SDS011;1717;50.240;8.406;2022-12-11T08:12:28;28.20;;;15.80;;
3407;SDS011;1717;50.240;8.406;2022-12-11T08:14:55;27.05;;;14.43;;
3407;SDS011;1717;50.240;8.406;2022-12-11T08:17:22;28.95;;;15.15;;
3407;SDS011;1717;50.240;8.406;2022-12-11T08:19:50;25.48;;;16.17;;
3407;SDS011;1717;50.240;8.406;2022-12-11T08:22:17;25.90;;;13.88;;
3407;SDS011;1717;50.240;8.406;2022-12-11T08:24:45;35.17;;;19.35;;
3407;SDS011;1717;50.240;8.406;2022-12-11T08:27:12;36.22;;;17.30;;
3407;SDS011;1717;50.240;8.406;2022-12-11T08:29:39;28.92;;;13.82;;
3407;SDS011;1717;50.240;8.406;2022-12-11T08:32:06;25.55;;;15.52;;
3407;SDS011;1717;50.240;8.406;2022-12-11T08:34:33;26.60;;;14.40;;
3407;SDS011;1717;50.240;8.406;2022-12-11T08:37:01;27.10;;;14.45;;
3407;SDS011;1717;50.240;8.406;2022-12-11T08:39:28;24.40;;;12.55;;
3407;SDS011;1717;50.240;8.406;2022-12-11T08:41:55;18.23;;;10.73;;
3407;SDS011;1717;50.240;8.406;2022-12-11T08:44:22;17.88;;;10.57;;
3407;SDS011;1717;50.240;8.406;2022-12-11T08:46:50;15.52;;;8.65;;
3407;SDS011;1717;50.240;8.406;2022-12-11T08:49:17;16.67;;;9.02;;
3407;SDS011;1717;50.240;8.406;2022-12-11T08:51:44;14.27;;;7.40;;
3407;SDS011;1717;50.240;8.406;2022-12-11T08:54:13;12.48;;;8.05;;
3407;SDS011;1717;50.240;8.406;2022-12-11T08:56:39;19.65;;;10.25;;
3407;SDS011;1717;50.240;8.406;2022-12-11T08:59:06;15.80;;;9.65;;
3407;SDS011;1717;50.240;8.406;2022-12-11T09:01:33;15.73;;;8.45;;
3407;SDS011;1717;50.240;8.406;2022-12-11T09:04:00;17.50;;;9.85;;
3407;SDS011;1717;50.240;8.406;2022-12-11T09:06:27;15.67;;;9.40;;
3407;SDS011;1717;50.240;8.406;2022-12-11T09:08:57;23.63;;;10.82;;
3407;SDS011;1717;50.240;8.406;2022-12-11T09:11:27;21.40;;;12.25;;
3407;SDS011;1717;50.240;8.406;2022-12-11T09:13:56;23.08;;;11.05;;
3407;SDS011;1717;50.240;8.406;2022-12-11T09:16:23;18.45;;;8.82;;
3407;SDS011;1717;50.240;8.406;2022-12-11T09:18:53;27.73;;;13.57;;
3407;SDS011;1717;50.240;8.406;2022-12-11T09:21:21;26.38;;;13.57;;
3407;SDS011;1717;50.240;8.406;2022-12-11T09:23:51;19.42;;;10.93;;
3407;SDS011;1717;50.240;8.406;2022-12-11T09:26:19;27.75;;;14.20;;
3407;SDS011;1717;50.240;8.406;2022-12-11T09:28:48;29.02;;;13.82;;
3407;SDS011;1717;50.240;8.406;2022-12-11T09:31:18;29.55;;;15.43;;
3407;SDS011;1717;50.240;8.406;2022-12-11T09:33:47;18.10;;;12.18;;
3407;SDS011;1717;50.240;8.406;2022-12-11T09:36:15;21.15;;;11.40;;
3407;SDS011;1717;50.240;8.406;2022-12-11T09:38:43;26.10;;;12.02;;
3407;SDS011;1717;50.240;8.406;2022-12-11T09:46:55;23.42;;;11.35;;
3407;SDS011;1717;50.240;8.406;2022-12-11T09:49:27;23.30;;;11.98;;
3407;SDS011;1717;50.240;8.406;2022-12-11T09:52:00;21.33;;;12.30;;
3407;SDS011;1717;50.240;8.406;2022-12-11T09:54:38;24.90;;;11.38;;
3407;SDS011;1717;50.240;8.406;2022-12-11T09:57:12;24.65;;;11.35;;
3407;SDS011;1717;50.240;8.406;2022-12-11T10:00:08;21.58;;;11.77;;
3407;SDS011;1717;50.240;8.406;2022-12-11T10:02:55;20.08;;;10.63;;
3407;SDS011;1717;50.240;8.406;2022-12-11T10:05:46;20.98;;;10.80;;
3407;SDS011;1717;50.240;8.406;2022-12-11T10:08:19;24.80;;;12.43;;
3407;SDS011;1717;50.240;8.406;2022-12-11T10:10:53;25.15;;;12.75;;
3407;SDS011;1717;50.240;8.406;2022-12-11T10:13:27;22.42;;;12.00;;
3407;SDS011;1717;50.240;8.406;2022-12-11T10:16:03;23.45;;;13.52;;
3407;SDS011;1717;50.240;8.406;2022-12-11T10:18:37;19.80;;;10.93;;
3407;SDS011;1717;50.240;8.406;2022-12-11T10:21:05;18.02;;;10.95;;
3407;SDS011;1717;50.240;8.406;2022-12-11T10:23:33;15.20;;;9.02;;
3407;SDS011;1717;50.240;8.406;2022-12-11T10:26:06;16.13;;;9.30;;
3407;SDS011;1717;50.240;8.406;2022-12-11T10:28:37;20.50;;;9.60;;
3407;SDS011;1717;50.240;8.406;2022-12-11T10:31:07;19.40;;;9.57;;
3407;SDS011;1717;50.240;8.406;2022-12-11T10:33:43;25.85;;;11.30;;
3407;SDS011;1717;50.240;8.406;2022-12-11T10:36:19;22.98;;;10.52;;
3407;SDS011;1717;50.240;8.406;2022-12-11T10:38:52;22.55;;;12.48;;
3407;SDS011;1717;50.240;8.406;2022-12-11T10:41:20;27.67;;;12.18;;
3407;SDS011;1717;50.240;8.406;2022-12-11T10:43:49;23.48;;;11.93;;
3407;SDS011;1717;50.240;8.406;2022-12-11T10:46:19;20.17;;;12.65;;
3407;SDS011;1717;50.240;8.406;2022-12-11T10:48:48;18.85;;;9.70;;
3407;SDS011;1717;50.240;8.406;2022-12-11T10:51:17;21.08;;;11.50;;
3407;SDS011;1717;50.240;8.406;2022-12-11T10:53:48;18.20;;;9.30;;
3407;SDS011;1717;50.240;8.406;2022-12-11T10:56:23;17.55;;;10.27;;
3407;SDS011;1717;50.240;8.406;2022-12-11T10:58:51;18.90;;;9.23;;
3407;SDS011;1717;50.240;8.406;2022-12-11T11:01:20;15.50;;;10.05;;
3407;SDS011;1717;50.240;8.406;2022-12-11T11:03:53;25.25;;;11.93;;
3407;SDS011;1717;50.240;8.406;2022-12-11T11:06:22;24.90;;;10.85;;
3407;SDS011;1717;50.240;8.406;2022-12-11T11:08:51;18.90;;;9.80;;
3407;SDS011;1717;50.240;8.406;2022-12-11T11:11:21;16.33;;;10.38;;
3407;SDS011;1717;50.240;8.406;2022-12-11T11:13:51;18.10;;;9.45;;
3407;SDS011;1717;50.240;8.406;2022-12-11T11:16:30;19.13;;;9.68;;
3407;SDS011;1717;50.240;8.406;2022-12-11T11:19:00;29.45;;;16.02;;
3407;SDS011;1717;50.240;8.406;2022-12-11T11:21:26;27.75;;;15.43;;
3407;SDS011;1717;50.240;8.406;2022-12-11T11:23:54;25.30;;;13.27;;
3407;SDS011;1717;50.240;8.406;2022-12-11T11:26:21;26.88;;;14.43;;
3407;SDS011;1717;50.240;8.406;2022-12-11T11:28:50;27.95;;;11.00;;
3407;SDS011;1717;50.240;8.406;2022-12-11T11:31:20;25.73;;;12.20;;
3407;SDS011;1717;50.240;8.406;2022-12-11T11:33:56;18.92;;;10.55;;
3407;SDS011;1717;50.240;8.406;2022-12-11T11:36:27;22.90;;;12.65;;
3407;SDS011;1717;50.240;8.406;2022-12-11T11:39:02;21.23;;;11.45;;
3407;SDS011;1717;50.240;8.406;2022-12-11T11:41:42;21.42;;;10.65;;
3407;SDS011;1717;50.240;8.406;2022-12-11T11:44:14;20.58;;;11.10;;
3407;SDS011;1717;50.240;8.406;2022-12-11T11:46:45;21.13;;;12.57;;
3407;SDS011;1717;50.240;8.406;2022-12-11T11:49:17;26.35;;;11.38;;
3407;SDS011;1717;50.240;8.406;2022-12-11T11:51:50;24.50;;;12.48;;
3407;SDS011;1717;50.240;8.406;2022-12-11T11:54:26;24.38;;;12.18;;
3407;SDS011;1717;50.240;8.406;2022-12-11T11:56:56;26.80;;;12.88;;
3407;SDS011;1717;50.240;8.406;2022-12-11T11:59:27;28.25;;;13.70;;
3407;SDS011;1717;50.240;8.406;2022-12-11T12:01:57;26.83;;;13.35;;
3407;SDS011;1717;50.240;8.406;2022-12-11T12:04:26;26.25;;;12.75;;
3407;SDS011;1717;50.240;8.406;2022-12-11T12:07:06;24.98;;;13.23;;
3407;SDS011;1717;50.240;8.406;2022-12-11T12:09:45;23.95;;;14.40;;
3407;SDS011;1717;50.240;8.406;2022-12-11T12:12:21;25.02;;;12.32;;
3407;SDS011;1717;50.240;8.406;2022-12-11T12:15:07;21.63;;;13.10;;
3407;SDS011;1717;50.240;8.406;2022-12-11T12:20:15;21.23;;;11.43;;
3407;SDS011;1717;50.240;8.406;2022-12-11T12:23:05;19.75;;;11.95;;
3407;SDS011;1717;50.240;8.406;2022-12-11T12:25:47;26.20;;;13.75;;
3407;SDS011;1717;50.240;8.406;2022-12-11T12:28:21;30.75;;;14.05;;
3407;SDS011;1717;50.240;8.406;2022-12-11T12:31:04;29.70;;;15.75;;
3407;SDS011;1717;50.240;8.406;2022-12-11T12:33:45;33.88;;;14.65;;
3407;SDS011;1717;50.240;8.406;2022-12-11T12:36:21;26.13;;;12.80;;
3407;SDS011;1717;50.240;8.406;2022-12-11T12:38:53;29.55;;;13.15;;
3407;SDS011;1717;50.240;8.406;2022-12-11T12:41:27;26.23;;;14.60;;
3407;SDS011;1717;50.240;8.406;2022-12-11T12:44:05;27.25;;;13.93;;
3407;SDS011;1717;50.240;8.406;2022-12-11T12:46:48;24.65;;;14.35;;
3407;SDS011;1717;50.240;8.406;2022-12-11T12:49:36;21.90;;;12.60;;
3407;SDS011;1717;50.240;8.406;2022-12-11T12:52:10;21.90;;;12.07;;
3407;SDS011;1717;50.240;8.406;2022-12-11T12:54:41;20.65;;;11.40;;
3407;SDS011;1717;50.240;8.406;2022-12-11T12:57:33;19.50;;;10.02;;
3407;SDS011;1717;50.240;8.406;2022-12-11T13:00:02;16.52;;;9.57;;
3407;SDS011;1717;50.240;8.406;2022-12-11T13:02:31;19.23;;;10.05;;
3407;SDS011;1717;50.240;8.406;2022-12-11T13:04:59;19.10;;;10.75;;
3407;SDS011;1717;50.240;8.406;2022-12-11T13:07:30;17.88;;;10.38;;
3407;SDS011;1717;50.240;8.406;2022-12-11T13:10:00;17.38;;;10.15;;
3407;SDS011;1717;50.240;8.406;2022-12-11T13:12:32;14.73;;;9.10;;
3407;SDS011;1717;50.240;8.406;2022-12-11T13:15:21;16.60;;;9.73;;
3407;SDS011;1717;50.240;8.406;2022-12-11T13:17:50;22.02;;;10.82;;
3407;SDS011;1717;50.240;8.406;2022-12-11T13:20:18;19.25;;;8.82;;
3407;SDS011;1717;50.240;8.406;2022-12-11T13:22:48;17.65;;;9.73;;
3407;SDS011;1717;50.240;8.406;2022-12-11T13:25:20;23.60;;;12.20;;
3407;SDS011;1717;50.240;8.406;2022-12-11T13:27:52;19.00;;;10.13;;
3407;SDS011;1717;50.240;8.406;2022-12-11T13:30:30;16.23;;;9.55;;
3407;SDS011;1717;50.240;8.406;2022-12-11T13:33:00;19.13;;;9.48;;
3407;SDS011;1717;50.240;8.406;2022-12-11T13:35:30;20.02;;;10.82;;
3407;SDS011;1717;50.240;8.406;2022-12-11T13:38:02;18.13;;;11.13;;
3407;SDS011;1717;50.240;8.406;2022-12-11T13:40:34;18.10;;;8.60;;
3407;SDS011;1717;50.240;8.406;2022-12-11T13:43:05;23.60;;;11.30;;
3407;SDS011;1717;50.240;8.406;2022-12-11T13:45:43;21.20;;;11.95;;
3407;SDS011;1717;50.240;8.406;2022-12-11T13:48:15;20.90;;;11.85;;
3407;SDS011;1717;50.240;8.406;2022-12-11T13:50:46;20.98;;;12.82;;
3407;SDS011;1717;50.240;8.406;2022-12-11T13:53:16;30.10;;;13.70;;
3407;SDS011;1717;50.240;8.406;2022-12-11T13:55:44;25.15;;;12.48;;
3407;SDS011;1717;50.240;8.406;2022-12-11T13:58:15;28.27;;;13.40;;
3407;SDS011;1717;50.240;8.406;2022-12-11T14:00:51;24.05;;;13.38;;
3407;SDS011;1717;50.240;8.406;2022-12-11T14:03:22;25.02;;;13.90;;
3407;SDS011;1717;50.240;8.406;2022-12-11T14:05:50;25.85;;;12.57;;
3407;SDS011;1717;50.240;8.406;2022-12-11T14:08:19;20.83;;;11.73;;
3407;SDS011;1717;50.240;8.406;2022-12-11T14:10:50;23.45;;;12.32;;
3407;SDS011;1717;50.240;8.406;2022-12-11T14:13:19;24.55;;;12.90;;
3407;SDS011;1717;50.240;8.406;2022-12-11T14:15:48;23.27;;;14.48;;
3407;SDS011;1717;50.240;8.406;2022-12-11T14:18:17;35.38;;;17.33;;
3407;SDS011;1717;50.240;8.406;2022-12-11T14:20:52;35.30;;;17.10;;
3407;SDS011;1717;50.240;8.406;2022-12-11T14:23:22;33.57;;;17.80;;
3407;SDS011;1717;50.240;8.406;2022-12-11T14:25:51;38.33;;;21.40;;
3407;SDS011;1717;50.240;8.406;2022-12-11T14:28:19;33.37;;;19.20;;
3407;SDS011;1717;50.240;8.406;2022-12-11T14:30:48;39.28;;;20.33;;
3407;SDS011;1717;50.240;8.406;2022-12-11T14:33:16;38.78;;;22.23;;
3407;SDS011;1717;50.240;8.406;2022-12-11T14:35:46;44.73;;;23.80;;
3407;SDS011;1717;50.240;8.406;2022-12-11T14:38:17;42.23;;;23.60;;
3407;SDS011;1717;50.240;8.406;2022-12-11T14:40:50;43.57;;;22.40;;
3407;SDS011;1717;50.240;8.406;2022-12-11T14:43:21;41.38;;;22.75;;
3407;SDS011;1717;50.240;8.406;2022-12-11T14:45:53;41.10;;;24.57;;
3407;SDS011;1717;50.240;8.406;2022-12-11T14:48:25;48.28;;;25.70;;
3407;SDS011;1717;50.240;8.406;2022-12-11T14:50:56;44.70;;;24.07;;
3407;SDS011;1717;50.240;8.406;2022-12-11T14:53:27;44.42;;;24.48;;
3407;SDS011;1717;50.240;8.406;2022-12-11T14:56:00;53.67;;;25.30;;
3407;SDS011;1717;50.240;8.406;2022-12-11T14:58:30;37.43;;;22.27;;
3407;SDS011;1717;50.240;8.406;2022-12-11T15:01:01;48.57;;;24.33;;
3407;SDS011;1717;50.240;8.406;2022-12-11T15:03:30;48.30;;;26.60;;
3407;SDS011;1717;50.240;8.406;2022-12-11T15:05:58;51.07;;;27.27;;
3407;SDS011;1717;50.240;8.406;2022-12-11T15:08:27;54.63;;;26.87;;
3407;SDS011;1717;50.240;8.406;2022-12-11T15:11:00;43.83;;;25.33;;
3407;SDS011;1717;50.240;8.406;2022-12-11T15:13:32;49.23;;;25.87;;